Sereno, Missouri
Current Conditions -  °F | °C
As of 10:15 PM on Wednesday 26 Nov 2014 (Local Time) from KFAM Reporting Station
Overcast Overcast  
Wind Chill: -4°   Ceiling: 900
Heat Index:   Visibility: 9mi
Dew Point: -1°   Wind: 15mph
Humidity: 87%   Direction: 280°W
Pressure: 30.13"   Gusts: 22mph
Location:  37.7127°N, 89.8903°W
Report Text: KFAM 270415Z AUTO 28013G19KT 9SM BKN009 OVC016 01/M01 A3013 RMK AO1
Loading
Personal Weather Stations






























Interactive Weather Map New forecast layout! Learn more

10-Day Weather Forecast

Advertisements
Track Severe Weather on mobile